createdAt,value
2022-12-22T00:00:04.022Z,29.77
2022-12-22T00:03:35.137Z,30.38
2022-12-22T00:06:34.111Z,27.50
2022-12-22T00:09:46.058Z,20.02
2022-12-22T00:12:53.076Z,21.95
2022-12-22T00:15:52.091Z,22.38
2022-12-22T00:19:04.111Z,21.10
2022-12-22T00:22:10.105Z,17.60
2022-12-22T00:25:09.090Z,18.90
2022-12-22T00:28:15.092Z,20.08
2022-12-22T00:31:15.178Z,19.58
2022-12-22T00:34:21.075Z,23.27
2022-12-22T00:37:13.803Z,16.15
2022-12-22T00:40:19.103Z,22.83
2022-12-22T00:43:18.067Z,23.02
2022-12-22T00:46:18.663Z,24.05
2022-12-22T00:49:24.107Z,8.80
2022-12-22T00:52:23.080Z,17.58
2022-12-22T00:55:22.897Z,13.32
2022-12-22T00:58:23.117Z,29.35
2022-12-22T01:01:23.220Z,24.73
2022-12-22T01:04:22.103Z,17.52
2022-12-22T01:07:22.081Z,17.55
2022-12-22T01:10:21.099Z,25.75
2022-12-22T01:13:27.082Z,23.63
2022-12-22T01:16:20.164Z,23.17
2022-12-22T01:19:26.331Z,20.17
2022-12-22T01:22:18.909Z,25.27
2022-12-22T01:25:25.116Z,13.13
2022-12-22T01:28:24.109Z,14.95
2022-12-22T01:31:23.803Z,17.23
2022-12-22T01:34:29.128Z,19.42
2022-12-22T01:37:22.073Z,22.70
2022-12-22T01:40:28.115Z,35.28
2022-12-22T01:43:27.087Z,15.60
2022-12-22T01:46:56.072Z,25.83
2022-12-22T01:50:07.088Z,16.95
2022-12-22T01:53:01.055Z,23.77
2022-12-22T01:56:07.071Z,23.45
2022-12-22T01:59:12.134Z,27.58
2022-12-22T02:02:24.166Z,27.13
2022-12-22T02:05:32.088Z,17.10
2022-12-22T02:08:37.784Z,23.92
2022-12-22T02:11:43.093Z,27.98
2022-12-22T02:14:42.107Z,28.90
2022-12-22T02:17:54.090Z,33.53
2022-12-22T02:21:03.085Z,24.17
2022-12-22T02:24:07.332Z,25.88
2022-12-22T02:27:25.097Z,32.10
2022-12-22T02:30:33.096Z,28.08
2022-12-22T02:33:39.076Z,29.67
2022-12-22T02:37:03.143Z,40.00
2022-12-22T02:40:56.098Z,32.75
2022-12-22T02:44:11.083Z,32.72
2022-12-22T02:47:09.058Z,22.45
2022-12-22T02:50:25.109Z,28.13
2022-12-22T02:53:24.120Z,27.65
2022-12-22T02:56:41.127Z,27.55
2022-12-22T02:59:47.102Z,32.60
2022-12-22T03:02:46.331Z,25.45
2022-12-22T03:05:52.104Z,30.27
2022-12-22T03:08:44.705Z,24.33
2022-12-22T03:11:50.084Z,28.73
2022-12-22T03:14:49.091Z,27.20
2022-12-22T03:17:48.709Z,28.67
2022-12-22T03:20:54.071Z,25.33
2022-12-22T03:23:46.600Z,26.40
2022-12-22T03:26:34.077Z,22.50
2022-12-22T03:29:14.091Z,29.60
2022-12-22T03:32:02.168Z,26.60
2022-12-22T03:34:37.056Z,26.50
2022-12-22T03:37:25.110Z,28.23
2022-12-22T03:40:05.075Z,26.13
2022-12-22T03:43:05.280Z,26.13
2022-12-22T03:46:04.129Z,26.08
2022-12-22T03:49:12.352Z,27.02
2022-12-22T03:52:08.088Z,22.92
2022-12-22T03:54:55.140Z,25.45
2022-12-22T03:57:36.083Z,22.58
2022-12-22T04:00:24.129Z,25.70
2022-12-22T04:03:05.196Z,26.38
2022-12-22T04:05:59.103Z,29.70
2022-12-22T04:08:46.123Z,30.10
2022-12-22T04:11:38.672Z,30.23
2022-12-22T04:14:31.304Z,25.73
2022-12-22T04:17:07.220Z,34.17
2022-12-22T04:19:55.103Z,24.65
2022-12-22T04:22:36.133Z,23.88
2022-12-22T04:25:24.112Z,25.63
2022-12-22T04:28:11.099Z,22.65
2022-12-22T04:30:58.125Z,25.77
2022-12-22T04:33:32.172Z,25.58
2022-12-22T04:36:20.131Z,21.60
2022-12-22T04:38:54.157Z,25.85
2022-12-22T04:41:41.131Z,28.13
2022-12-22T04:44:22.088Z,30.25
2022-12-22T04:47:16.113Z,36.53
2022-12-22T04:50:04.084Z,24.15
2022-12-22T04:52:38.174Z,32.22
2022-12-22T04:55:25.099Z,32.83
2022-12-22T04:58:06.114Z,27.40
2022-12-22T05:00:53.175Z,38.85
2022-12-22T05:03:27.213Z,31.10
2022-12-22T05:06:15.114Z,31.38
2022-12-22T05:08:56.095Z,28.77
2022-12-22T05:11:51.141Z,30.35
2022-12-22T05:14:38.134Z,33.47
2022-12-22T05:17:12.254Z,36.63
2022-12-22T05:19:59.151Z,36.47
2022-12-22T05:22:33.176Z,21.30
2022-12-22T05:25:23.108Z,28.77
2022-12-22T05:27:57.168Z,29.05
2022-12-22T05:30:44.207Z,28.70
2022-12-22T05:33:25.103Z,22.30
2022-12-22T05:36:13.142Z,26.38
2022-12-22T05:38:47.233Z,24.90
2022-12-22T05:41:34.125Z,25.63
2022-12-22T05:44:08.210Z,28.10
2022-12-22T05:46:59.137Z,31.00
2022-12-22T05:49:40.121Z,27.27
2022-12-22T05:52:27.143Z,33.17
2022-12-22T05:55:01.177Z,25.48
2022-12-22T05:57:49.174Z,33.75
2022-12-22T06:00:23.197Z,26.48
2022-12-22T06:03:10.168Z,26.90
2022-12-22T06:05:44.221Z,27.30
2022-12-22T06:08:32.137Z,25.30
2022-12-22T06:11:06.197Z,33.42
2022-12-22T06:13:54.113Z,43.50
2022-12-22T06:16:28.342Z,70.75
2022-12-22T06:19:15.160Z,59.55
2022-12-22T06:21:56.129Z,66.18
2022-12-22T06:24:43.154Z,72.25
2022-12-22T06:27:17.216Z,56.03
2022-12-22T06:30:04.120Z,58.83
2022-12-22T06:32:45.146Z,46.28
2022-12-22T06:35:39.122Z,36.63
2022-12-22T06:38:26.144Z,37.00
2022-12-22T06:41:07.103Z,26.02
2022-12-22T06:44:02.142Z,22.90
2022-12-22T06:46:49.204Z,28.27
2022-12-22T06:49:30.175Z,38.88
2022-12-22T06:52:24.128Z,33.55
2022-12-22T06:55:12.125Z,24.95
2022-12-22T06:57:46.198Z,40.88
2022-12-22T07:00:33.145Z,46.55
2022-12-22T07:03:14.540Z,39.88
2022-12-22T07:05:55.144Z,52.90
2022-12-22T07:08:43.134Z,64.18
2022-12-22T07:11:24.143Z,56.90
2022-12-22T07:14:12.134Z,47.53
2022-12-22T07:16:47.110Z,41.00
2022-12-22T07:19:35.154Z,34.80
2022-12-22T07:22:15.153Z,34.25
2022-12-22T07:25:03.245Z,31.98
2022-12-22T07:27:37.080Z,33.67
2022-12-22T07:30:25.120Z,40.95
2022-12-22T07:33:13.137Z,31.25
2022-12-22T07:36:19.167Z,28.77
2022-12-22T07:38:55.224Z,28.95
2022-12-22T07:42:01.208Z,30.70
2022-12-22T07:44:35.205Z,30.17
2022-12-22T07:47:23.116Z,28.55
2022-12-22T07:50:16.002Z,21.88
2022-12-22T07:53:06.142Z,29.25
2022-12-22T07:55:43.219Z,29.35
2022-12-22T07:58:30.130Z,35.40
2022-12-22T08:01:05.201Z,28.40
2022-12-22T08:03:52.123Z,30.45
2022-12-22T08:06:33.152Z,22.38
2022-12-22T08:09:15.845Z,36.35
2022-12-22T08:12:03.125Z,27.38
2022-12-22T08:14:43.135Z,25.60
2022-12-22T08:17:31.124Z,26.30
2022-12-22T08:20:05.929Z,30.58
2022-12-22T08:22:53.206Z,30.88
2022-12-22T08:25:34.130Z,28.83
2022-12-22T08:28:23.170Z,33.58
2022-12-22T08:31:03.119Z,25.27
2022-12-22T08:33:51.192Z,34.05
2022-12-22T08:36:25.370Z,32.97
2022-12-22T08:39:13.119Z,33.47
2022-12-22T08:41:50.242Z,34.47
2022-12-22T08:47:16.944Z,26.20
2022-12-22T08:50:05.111Z,26.02
2022-12-22T08:52:46.128Z,35.75
2022-12-22T08:55:34.124Z,23.05
2022-12-22T08:58:15.133Z,32.22
2022-12-22T09:01:03.240Z,32.97
2022-12-22T09:03:43.146Z,30.30
2022-12-22T09:06:27.437Z,29.98
2022-12-22T09:09:09.145Z,37.42
2022-12-22T09:11:57.155Z,34.00
2022-12-22T09:14:39.140Z,24.88
2022-12-22T09:17:20.233Z,29.40
2022-12-22T09:20:01.141Z,25.95
2022-12-22T09:22:42.212Z,31.25
2022-12-22T09:25:25.183Z,27.88
2022-12-22T09:28:06.207Z,32.15
2022-12-22T09:30:58.145Z,25.67
2022-12-22T09:33:39.172Z,29.80
2022-12-22T09:36:29.159Z,35.85
2022-12-22T09:39:03.331Z,26.92
2022-12-22T09:41:57.190Z,25.40
2022-12-22T09:44:31.239Z,41.63
2022-12-22T09:47:44.139Z,35.05
2022-12-22T09:50:30.164Z,34.15
2022-12-22T09:53:30.184Z,35.50
2022-12-22T09:56:04.231Z,30.40
2022-12-22T09:58:53.153Z,30.65
2022-12-22T10:01:40.271Z,32.47
2022-12-22T10:04:27.128Z,31.55
2022-12-22T10:07:23.141Z,34.03
2022-12-22T10:10:31.169Z,30.47
2022-12-22T10:13:13.169Z,34.28
2022-12-22T10:15:53.255Z,38.15
2022-12-22T10:18:35.148Z,40.47
2022-12-22T10:21:20.205Z,47.88
2022-12-22T10:24:01.327Z,42.33
2022-12-22T10:26:41.131Z,52.60
2022-12-22T10:29:31.174Z,37.83
2022-12-22T10:32:19.228Z,33.35
2022-12-22T10:35:13.132Z,32.30
2022-12-22T10:37:47.138Z,33.58
2022-12-22T10:40:37.141Z,39.78
2022-12-22T10:43:18.152Z,32.87
2022-12-22T10:46:00.335Z,37.95
2022-12-22T10:48:46.203Z,35.25
2022-12-22T10:51:31.261Z,33.45
2022-12-22T10:54:12.175Z,28.55
2022-12-22T10:57:12.182Z,29.90
2022-12-22T11:00:07.187Z,31.20
2022-12-22T11:02:48.345Z,39.75
2022-12-22T11:05:29.192Z,35.33
2022-12-22T11:08:33.140Z,35.35
2022-12-22T11:11:40.153Z,42.35
2022-12-22T11:14:30.221Z,48.30
2022-12-22T11:17:17.234Z,42.42
2022-12-22T11:20:05.237Z,41.90
2022-12-22T11:22:54.187Z,44.53
2022-12-22T11:25:44.161Z,38.28
2022-12-22T11:28:43.792Z,43.55
2022-12-22T11:31:44.154Z,42.33
2022-12-22T11:34:29.477Z,35.58
2022-12-22T11:37:28.148Z,37.75
2022-12-22T11:40:11.169Z,39.78
2022-12-22T11:43:22.156Z,42.83
2022-12-22T11:46:25.247Z,40.03
2022-12-22T11:49:22.190Z,46.67
2022-12-22T11:52:05.193Z,48.72
2022-12-22T11:55:11.162Z,52.33
2022-12-22T11:58:16.185Z,44.53
2022-12-22T12:01:24.131Z,45.05
2022-12-22T12:04:09.285Z,43.13
2022-12-22T12:07:03.162Z,49.17
2022-12-22T12:10:00.195Z,74.28
2022-12-22T12:12:41.223Z,87.93
2022-12-22T12:15:28.213Z,81.28
2022-12-22T12:18:27.302Z,65.28
2022-12-22T12:21:08.143Z,93.65
2022-12-22T12:23:58.317Z,102.65
2022-12-22T12:29:22.198Z,98.53
2022-12-22T12:32:11.252Z,95.15
2022-12-22T12:34:54.185Z,71.57
2022-12-22T12:37:40.198Z,70.97
2022-12-22T12:40:28.297Z,69.38
2022-12-22T12:43:19.204Z,71.68
2022-12-22T12:45:55.364Z,70.78
2022-12-22T12:48:42.199Z,72.35
2022-12-22T12:51:52.309Z,74.03
2022-12-22T12:54:39.182Z,77.13
2022-12-22T12:57:36.162Z,84.75
2022-12-22T13:03:53.202Z,75.60
2022-12-22T13:06:49.380Z,59.83
2022-12-22T13:09:50.608Z,66.18
2022-12-22T13:12:55.185Z,66.03
2022-12-22T13:15:36.317Z,74.97
2022-12-22T13:18:33.181Z,71.75
2022-12-22T13:21:51.416Z,66.13
2022-12-22T13:24:45.225Z,66.22
2022-12-22T13:27:35.205Z,69.32
2022-12-22T13:30:16.215Z,65.82
2022-12-22T13:33:10.201Z,77.80
2022-12-22T13:35:59.375Z,72.78
2022-12-22T13:38:40.215Z,73.65
2022-12-22T13:41:35.295Z,82.97
2022-12-22T13:44:24.195Z,73.40
2022-12-22T13:46:58.287Z,64.40
2022-12-22T13:52:42.270Z,71.90
2022-12-22T13:55:34.222Z,71.57
2022-12-22T13:58:19.244Z,71.10
2022-12-22T14:01:19.288Z,79.20
2022-12-22T14:04:04.755Z,67.85
2022-12-22T14:06:51.213Z,56.10
2022-12-22T14:09:39.205Z,61.10
2022-12-22T14:12:36.215Z,58.67
2022-12-22T14:15:25.176Z,57.55
2022-12-22T14:17:59.263Z,48.60
2022-12-22T14:20:47.177Z,58.17
2022-12-22T14:23:32.213Z,57.67
2022-12-22T14:26:30.216Z,61.30
2022-12-22T14:29:21.181Z,62.45
2022-12-22T14:32:15.315Z,57.25
2022-12-22T14:35:09.172Z,66.75
2022-12-22T14:38:15.235Z,65.45
2022-12-22T14:41:03.184Z,72.63
2022-12-22T14:43:43.168Z,64.30
2022-12-22T14:46:25.450Z,69.88
2022-12-22T14:49:06.165Z,70.55
2022-12-22T14:51:47.293Z,67.05
2022-12-22T14:54:30.225Z,66.30
2022-12-22T14:57:16.956Z,68.53
2022-12-22T15:00:10.194Z,71.13
2022-12-22T15:03:26.325Z,69.07
2022-12-22T15:06:18.677Z,69.78
2022-12-22T15:09:33.321Z,63.67
2022-12-22T15:12:14.251Z,69.80
2022-12-22T15:15:02.217Z,68.05
2022-12-22T15:17:36.153Z,65.07
2022-12-22T15:20:27.207Z,73.20
2022-12-22T15:23:01.118Z,66.80
2022-12-22T15:25:49.208Z,65.20
2022-12-22T15:28:29.211Z,69.50
2022-12-22T15:31:11.343Z,76.13
2022-12-22T15:33:52.227Z,69.03
2022-12-22T15:36:33.300Z,77.05
2022-12-22T15:39:21.229Z,66.07
2022-12-22T15:42:02.322Z,62.40
2022-12-22T15:44:42.195Z,70.20
2022-12-22T15:47:23.281Z,52.35
2022-12-22T15:50:04.195Z,42.55
2022-12-22T15:52:52.187Z,41.65
2022-12-22T15:55:33.182Z,50.55
2022-12-22T15:58:14.317Z,43.28
2022-12-22T16:00:54.278Z,44.67
2022-12-22T16:03:42.346Z,39.53
2022-12-22T16:06:17.640Z,38.83
2022-12-22T16:09:11.240Z,44.50
2022-12-22T16:12:05.209Z,47.97
2022-12-22T16:14:56.192Z,47.75
2022-12-22T16:17:34.039Z,49.10
2022-12-22T16:20:21.206Z,52.10
2022-12-22T16:22:56.305Z,60.60
2022-12-22T16:25:45.198Z,57.10
2022-12-22T16:28:30.270Z,79.18
2022-12-22T16:31:10.358Z,73.68
2022-12-22T16:33:51.274Z,53.92
2022-12-22T16:36:32.228Z,45.33
2022-12-22T16:39:13.327Z,40.00
2022-12-22T16:42:00.196Z,38.58
2022-12-22T16:44:41.265Z,38.80
2022-12-22T16:47:27.185Z,41.67
2022-12-22T16:50:15.235Z,36.15
2022-12-22T16:52:56.199Z,31.80
2022-12-22T16:55:45.254Z,37.67
2022-12-22T16:58:19.211Z,41.92
2022-12-22T17:01:07.192Z,39.65
2022-12-22T17:03:43.038Z,38.88
2022-12-22T17:06:30.241Z,35.50
2022-12-22T17:09:05.380Z,29.27
2022-12-22T17:11:53.225Z,32.17
2022-12-22T17:14:28.845Z,35.40
2022-12-22T17:17:16.209Z,35.58
2022-12-22T17:19:51.559Z,33.30
2022-12-22T17:22:39.238Z,33.65
2022-12-22T17:25:24.214Z,30.17
2022-12-22T17:28:15.208Z,29.98
2022-12-22T17:30:56.256Z,23.40
2022-12-22T17:33:44.351Z,41.90
2022-12-22T17:36:41.215Z,27.25
2022-12-22T17:39:23.267Z,23.75
2022-12-22T17:42:04.252Z,26.88
2022-12-22T17:44:45.564Z,20.67
2022-12-22T17:47:34.672Z,21.15
2022-12-22T17:50:27.238Z,23.23
2022-12-22T17:53:08.203Z,24.25
2022-12-22T17:56:07.685Z,23.15
2022-12-22T17:58:50.214Z,27.75
2022-12-22T18:01:45.383Z,20.88
2022-12-22T18:04:19.143Z,22.20
2022-12-22T18:07:07.237Z,25.30
2022-12-22T18:09:55.208Z,22.42
2022-12-22T18:12:37.200Z,29.42
2022-12-22T18:15:29.208Z,26.60
2022-12-22T18:18:03.297Z,27.60
2022-12-22T18:21:07.500Z,32.08
2022-12-22T18:23:50.994Z,20.42
2022-12-22T18:26:46.225Z,26.65
2022-12-22T18:29:33.213Z,22.95
2022-12-22T18:32:09.297Z,25.52
2022-12-22T18:34:56.261Z,26.80
2022-12-22T18:37:37.225Z,25.20
2022-12-22T18:40:31.217Z,22.92
2022-12-22T18:43:19.241Z,22.60
2022-12-22T18:45:53.350Z,22.30
2022-12-22T18:48:41.244Z,22.73
2022-12-22T18:51:34.184Z,20.25
2022-12-22T18:54:44.196Z,22.88
2022-12-22T18:57:31.240Z,21.95
2022-12-22T19:00:11.502Z,17.98
2022-12-22T19:03:04.323Z,19.08
2022-12-22T19:05:47.235Z,22.50
2022-12-22T19:08:46.003Z,26.08
2022-12-22T19:11:37.220Z,28.20
2022-12-22T19:14:11.344Z,19.48
2022-12-22T19:16:59.261Z,23.65
2022-12-22T19:19:40.212Z,22.98
2022-12-22T19:22:34.191Z,20.85
2022-12-22T19:25:22.252Z,20.33
2022-12-22T19:27:58.404Z,17.35
2022-12-22T19:30:46.195Z,19.05
2022-12-22T19:33:24.339Z,16.70
2022-12-22T19:36:12.201Z,19.27
2022-12-22T19:38:50.489Z,21.33
2022-12-22T19:41:54.234Z,20.35
2022-12-22T19:44:38.255Z,19.58
2022-12-22T19:47:36.211Z,19.02
2022-12-22T19:50:27.392Z,17.27
2022-12-22T19:53:08.240Z,22.98
2022-12-22T19:55:50.353Z,23.77
2022-12-22T19:58:44.259Z,14.32
2022-12-22T20:01:25.404Z,26.02
2022-12-22T20:04:06.220Z,23.92
2022-12-22T20:06:47.313Z,27.73
2022-12-22T20:09:27.235Z,23.67
2022-12-22T20:12:08.338Z,21.77
2022-12-22T20:14:50.208Z,21.17
2022-12-22T20:17:31.357Z,31.25
2022-12-22T20:20:12.241Z,32.03
2022-12-22T20:23:03.384Z,42.95
2022-12-22T20:25:46.258Z,26.73
2022-12-22T20:28:39.210Z,22.95
2022-12-22T20:31:15.646Z,15.10
2022-12-22T20:34:03.242Z,20.00
2022-12-22T20:36:44.252Z,20.25
2022-12-22T20:39:32.248Z,17.10
2022-12-22T20:42:06.225Z,21.10
2022-12-22T20:45:02.539Z,27.27
2022-12-22T20:47:45.246Z,23.33
2022-12-22T20:50:42.279Z,19.35
2022-12-22T20:53:17.781Z,21.65
2022-12-22T20:56:05.253Z,20.38
2022-12-22T20:58:39.156Z,12.30
2022-12-22T21:01:27.302Z,20.17
2022-12-22T21:04:01.204Z,19.05
2022-12-22T21:06:50.232Z,15.95
2022-12-22T21:09:24.634Z,16.88
2022-12-22T21:12:12.229Z,14.23
2022-12-22T21:14:46.185Z,9.05
2022-12-22T21:17:34.257Z,12.43
2022-12-22T21:20:25.217Z,17.55
2022-12-22T21:23:06.340Z,15.45
2022-12-22T21:25:47.284Z,15.52
2022-12-22T21:28:41.262Z,17.70
2022-12-22T21:31:15.336Z,12.88
2022-12-22T21:34:03.260Z,14.10
2022-12-22T21:36:37.414Z,13.43
2022-12-22T21:39:34.258Z,22.13
2022-12-22T21:42:23.292Z,13.68
2022-12-22T21:44:57.385Z,21.60
2022-12-22T21:47:44.315Z,18.55
2022-12-22T21:50:38.316Z,15.52
2022-12-22T21:53:25.219Z,23.83
2022-12-22T21:56:06.271Z,35.75
2022-12-22T21:59:03.677Z,41.45
2022-12-22T22:01:52.393Z,28.05
2022-12-22T22:04:27.334Z,25.75
2022-12-22T22:07:14.240Z,13.13
2022-12-22T22:09:48.339Z,13.02
2022-12-22T22:12:43.219Z,11.50
2022-12-22T22:15:25.261Z,20.90
2022-12-22T22:18:19.251Z,19.30
2022-12-22T22:21:06.265Z,19.33
2022-12-22T22:23:40.304Z,14.05
2022-12-22T22:26:27.235Z,19.13
2022-12-22T22:29:01.333Z,15.50
2022-12-22T22:31:48.313Z,17.77
2022-12-22T22:34:30.250Z,23.98
2022-12-22T22:37:17.271Z,30.58
2022-12-22T22:39:51.345Z,23.17
2022-12-22T22:42:38.265Z,13.60
2022-12-22T22:45:12.301Z,13.35
2022-12-22T22:48:00.262Z,9.73
2022-12-22T22:50:41.231Z,8.90
2022-12-22T22:53:28.293Z,14.35
2022-12-22T22:56:09.231Z,12.48
2022-12-22T22:58:56.229Z,6.82
2022-12-22T23:01:37.325Z,6.72
2022-12-22T23:04:31.293Z,8.27
2022-12-22T23:07:18.276Z,6.30
2022-12-22T23:09:53.309Z,7.93
2022-12-22T23:12:40.270Z,5.90
2022-12-22T23:15:22.241Z,5.88
2022-12-22T23:18:09.239Z,7.13
2022-12-22T23:20:50.286Z,10.40
2022-12-22T23:23:45.228Z,5.25
2022-12-22T23:26:33.285Z,8.02
2022-12-22T23:29:14.244Z,12.68
2022-12-22T23:32:02.312Z,8.43
2022-12-22T23:34:36.330Z,9.05
2022-12-22T23:37:23.246Z,14.07
2022-12-22T23:40:33.061Z,4.28
2022-12-22T23:43:19.218Z,9.85
2022-12-22T23:46:07.375Z,4.72
2022-12-22T23:48:41.496Z,5.53
2022-12-22T23:51:30.298Z,6.13
2022-12-22T23:54:06.374Z,5.00
2022-12-22T23:56:53.242Z,5.82
2022-12-22T23:59:34.257Z,6.63
